Country
Station

 

Weather  for  Auckland Airport  -  New Zealand    New Zealand

  
21 °C (70 °F)
    
 
 

Current METAR for Auckland Airport is :

NZAA 192330Z AUTO 16004KT 120V190 9999 BKN040/// 21/16 Q1024 NOSIG

 

This is a report for Auckland Airport - New Zealand.
 
The report was made 25 minutes ago, at 23:30 UTC .
The wind was blowing at a speed of 2.1 meters per second (4.6 miles per hour) from south/southeast (160°), varying between east/southeast (120°) and south (190°).
 
The temperature was 21 °C (70 °F), with a dew-point at 16 °C (61 °F).
The atmospheric pressure was 1024 hPa (30.24 inHg).
The relative humidity was 73.1%.
 
The overall visibility was greater than 10 kilometers (6.2 miles).
 

 
 
 
 

Country :   A   B   C   D   E   F   G   H   I   J   K   L   M   N   O   P   Q   R   S   T   U   V   W   Y   Z

 

Site Info  |  Disclaimer  |  Credits  |  Privacy
Contact us  |  Add to favorites
© 2013-2019 METARs - All rights reserved